createdAt,value
2022-10-15T00:01:30.626Z,99.90
2022-10-15T00:06:32.367Z,99.90
2022-10-15T00:08:59.829Z,99.90
2022-10-15T00:11:28.633Z,99.90
2022-10-15T00:13:58.905Z,99.90
2022-10-15T00:16:27.967Z,99.90
2022-10-15T00:18:57.214Z,99.90
2022-10-15T00:21:25.120Z,99.90
2022-10-15T00:23:52.521Z,99.90
2022-10-15T00:26:23.350Z,99.90
2022-10-15T00:28:52.938Z,99.90
2022-10-15T00:31:26.416Z,99.90
2022-10-15T00:33:56.702Z,99.90
2022-10-15T00:36:30.887Z,99.90
2022-10-15T00:38:58.827Z,99.90
2022-10-15T00:41:35.289Z,99.90
2022-10-15T00:44:25.341Z,99.90
2022-10-15T00:46:54.510Z,99.90
2022-10-15T00:49:26.596Z,99.90
2022-10-15T00:52:02.336Z,99.90
2022-10-15T00:54:34.560Z,99.90
2022-10-15T00:57:02.011Z,99.90
2022-10-15T00:59:31.356Z,99.90
2022-10-15T01:02:01.001Z,99.90
2022-10-15T01:04:30.712Z,99.90
2022-10-15T01:06:58.182Z,99.90
2022-10-15T01:09:27.929Z,99.90
2022-10-15T01:11:56.128Z,99.90
2022-10-15T01:15:04.886Z,99.90
2022-10-15T01:18:06.095Z,99.90
2022-10-15T01:21:01.374Z,99.90
2022-10-15T01:23:43.398Z,99.90
2022-10-15T01:26:14.108Z,99.90
2022-10-15T01:29:02.185Z,99.90
2022-10-15T01:31:52.867Z,99.90
2022-10-15T01:34:33.445Z,99.90
2022-10-15T01:37:22.585Z,99.90
2022-10-15T01:39:59.409Z,99.90
2022-10-15T01:42:37.937Z,99.90
2022-10-15T01:45:18.665Z,99.90
2022-10-15T01:48:08.794Z,99.90
2022-10-15T01:50:44.597Z,99.90
2022-10-15T01:53:15.569Z,99.90
2022-10-15T01:55:46.149Z,99.90
2022-10-15T01:58:17.166Z,99.90
2022-10-15T02:00:45.024Z,99.90
2022-10-15T02:03:12.688Z,99.90
2022-10-15T02:05:55.620Z,99.90
2022-10-15T02:08:39.601Z,99.90
2022-10-15T02:11:14.549Z,99.90
2022-10-15T02:14:00.170Z,99.90
2022-10-15T02:16:36.611Z,99.90
2022-10-15T02:19:17.836Z,99.90
2022-10-15T02:21:51.982Z,99.90
2022-10-15T02:25:10.221Z,99.90
2022-10-15T02:27:40.236Z,99.90
2022-10-15T02:30:09.928Z,99.90
2022-10-15T02:32:41.625Z,99.90
2022-10-15T02:35:11.276Z,99.90
2022-10-15T02:37:46.972Z,99.90
2022-10-15T02:40:24.925Z,99.90
2022-10-15T02:42:52.680Z,99.90
2022-10-15T02:45:21.300Z,99.90
2022-10-15T02:47:48.812Z,99.90
2022-10-15T02:50:18.328Z,99.90
2022-10-15T02:52:45.834Z,99.90
2022-10-15T02:55:13.399Z,99.90
2022-10-15T02:57:41.405Z,99.90
2022-10-15T03:00:09.994Z,99.90
2022-10-15T03:02:38.785Z,99.90
2022-10-15T03:05:06.962Z,99.90
2022-10-15T03:07:34.329Z,99.90
2022-10-15T03:10:02.114Z,99.90
2022-10-15T03:12:30.049Z,99.90
2022-10-15T03:14:58.161Z,99.90
2022-10-15T03:17:26.380Z,99.90
2022-10-15T03:19:53.859Z,99.90
2022-10-15T03:22:24.494Z,99.90
2022-10-15T03:24:53.952Z,99.90
2022-10-15T03:27:27.188Z,99.90
2022-10-15T03:29:54.681Z,99.90
2022-10-15T03:32:24.386Z,99.90
2022-10-15T03:34:52.490Z,99.90
2022-10-15T03:37:21.271Z,99.90
2022-10-15T03:39:48.975Z,99.90
2022-10-15T03:42:18.442Z,99.90
2022-10-15T03:44:45.848Z,99.90
2022-10-15T03:47:16.782Z,99.90
2022-10-15T03:49:50.607Z,99.90
2022-10-15T03:52:18.230Z,99.90
2022-10-15T03:54:47.331Z,99.90
2022-10-15T03:57:17.413Z,99.90
2022-10-15T03:59:55.907Z,99.90
2022-10-15T04:02:25.662Z,99.90
2022-10-15T04:04:54.381Z,99.90
2022-10-15T04:07:24.352Z,99.90
2022-10-15T04:09:52.063Z,99.90
2022-10-15T04:12:29.694Z,99.90
2022-10-15T04:14:57.085Z,99.90
2022-10-15T04:17:24.484Z,99.90
2022-10-15T04:19:52.003Z,99.90
2022-10-15T04:22:21.266Z,99.90
2022-10-15T04:24:53.124Z,99.90
2022-10-15T04:27:29.749Z,99.90
2022-10-15T04:30:07.595Z,99.90
2022-10-15T04:32:35.780Z,99.90
2022-10-15T04:35:03.509Z,99.90
2022-10-15T04:37:52.090Z,99.90
2022-10-15T04:40:19.575Z,99.90
2022-10-15T04:42:47.743Z,99.90
2022-10-15T04:45:15.229Z,99.90
2022-10-15T04:47:45.835Z,99.90
2022-10-15T04:50:15.300Z,99.90
2022-10-15T04:53:01.289Z,99.90
2022-10-15T04:55:32.383Z,99.90
2022-10-15T04:58:01.307Z,99.90
2022-10-15T05:00:30.758Z,99.90
2022-10-15T05:02:58.051Z,99.90
2022-10-15T05:05:37.145Z,99.90
2022-10-15T05:08:05.749Z,99.90
2022-10-15T05:10:44.691Z,99.90
2022-10-15T05:13:12.909Z,99.90
2022-10-15T05:15:40.208Z,99.90
2022-10-15T05:18:10.685Z,99.90
2022-10-15T05:20:47.280Z,99.90
2022-10-15T05:23:18.201Z,99.90
2022-10-15T05:25:54.291Z,99.90
2022-10-15T05:28:24.600Z,99.90
2022-10-15T05:30:54.586Z,99.90
2022-10-15T05:33:21.897Z,99.90
2022-10-15T05:35:49.283Z,99.90
2022-10-15T05:38:18.126Z,99.90
2022-10-15T05:40:52.206Z,99.90
2022-10-15T05:43:23.669Z,99.90
2022-10-15T05:45:54.786Z,99.90
2022-10-15T05:48:23.189Z,99.90
2022-10-15T05:50:50.573Z,99.90
2022-10-15T05:53:23.761Z,99.90
2022-10-15T05:55:58.996Z,99.90
2022-10-15T05:58:33.387Z,99.90
2022-10-15T06:01:05.363Z,99.90
2022-10-15T06:03:33.446Z,99.90
2022-10-15T06:06:01.426Z,99.90
2022-10-15T06:08:33.900Z,99.90
2022-10-15T06:11:08.386Z,99.90
2022-10-15T06:13:41.679Z,99.90
2022-10-15T06:16:09.597Z,99.90
2022-10-15T06:18:38.539Z,99.90
2022-10-15T06:21:07.743Z,99.90
2022-10-15T06:23:35.706Z,99.90
2022-10-15T06:26:10.022Z,99.90
2022-10-15T06:28:38.771Z,99.90
2022-10-15T06:31:06.909Z,99.90
2022-10-15T06:33:35.400Z,99.90
2022-10-15T06:36:08.202Z,99.90
2022-10-15T06:38:39.532Z,99.90
2022-10-15T06:41:07.931Z,99.90
2022-10-15T06:43:35.862Z,99.90
2022-10-15T06:46:05.338Z,99.90
2022-10-15T06:48:33.208Z,99.90
2022-10-15T06:51:01.696Z,99.90
2022-10-15T06:53:30.708Z,99.90
2022-10-15T06:56:02.826Z,99.90
2022-10-15T06:58:36.614Z,99.90
2022-10-15T07:01:05.984Z,99.90
2022-10-15T07:03:34.485Z,99.90
2022-10-15T07:06:04.635Z,99.90
2022-10-15T07:08:32.817Z,99.90
2022-10-15T07:11:05.389Z,99.90
2022-10-15T07:13:33.849Z,99.90
2022-10-15T07:16:09.612Z,99.90
2022-10-15T07:18:38.718Z,99.90
2022-10-15T07:21:07.831Z,99.90
2022-10-15T07:23:35.257Z,99.90
2022-10-15T07:26:02.718Z,99.90
2022-10-15T07:28:30.211Z,99.90
2022-10-15T07:31:05.940Z,99.90
2022-10-15T07:33:37.134Z,99.90
2022-10-15T07:36:09.860Z,99.90
2022-10-15T07:38:37.450Z,99.90
2022-10-15T07:41:05.248Z,99.90
2022-10-15T07:43:37.727Z,99.90
2022-10-15T07:46:05.521Z,99.90
2022-10-15T07:48:33.201Z,99.90
2022-10-15T07:51:04.222Z,99.90
2022-10-15T07:53:32.560Z,99.90
2022-10-15T07:56:08.556Z,99.90
2022-10-15T07:58:38.238Z,99.90
2022-10-15T08:01:07.296Z,99.90
2022-10-15T08:03:35.741Z,99.90
2022-10-15T08:06:08.058Z,99.90
2022-10-15T08:08:36.412Z,99.90
2022-10-15T08:11:08.595Z,99.90
2022-10-15T08:13:36.432Z,99.90
2022-10-15T08:16:04.079Z,99.90
2022-10-15T08:18:31.436Z,99.90
2022-10-15T08:21:00.383Z,99.90
2022-10-15T08:23:28.296Z,99.90
2022-10-15T08:26:02.509Z,99.90
2022-10-15T08:28:30.912Z,99.90
2022-10-15T08:31:02.790Z,99.90
2022-10-15T08:33:36.370Z,99.90
2022-10-15T08:36:07.700Z,99.90
2022-10-15T08:38:35.201Z,99.90
2022-10-15T08:41:05.817Z,99.90
2022-10-15T08:43:40.137Z,99.90
2022-10-15T08:46:22.703Z,99.90
2022-10-15T08:49:01.413Z,99.90
2022-10-15T08:51:41.533Z,99.90
2022-10-15T08:54:15.684Z,99.90
2022-10-15T08:56:54.712Z,99.90
2022-10-15T08:59:52.338Z,99.90
2022-10-15T09:02:30.843Z,99.90
2022-10-15T09:05:29.741Z,99.90
2022-10-15T09:08:24.428Z,99.90
2022-10-15T09:10:59.444Z,99.90
2022-10-15T09:13:33.604Z,99.90
2022-10-15T09:16:21.596Z,99.90
2022-10-15T09:18:52.522Z,99.90
2022-10-15T09:21:25.805Z,99.90
2022-10-15T09:24:01.115Z,99.90
2022-10-15T09:26:37.189Z,99.90
2022-10-15T09:29:22.944Z,99.90
2022-10-15T09:32:15.896Z,99.90
2022-10-15T09:35:28.689Z,99.90
2022-10-15T09:38:14.362Z,99.90
2022-10-15T09:40:47.289Z,99.90
2022-10-15T09:43:20.237Z,99.90
2022-10-15T09:45:47.565Z,99.90
2022-10-15T09:48:19.731Z,99.90
2022-10-15T09:51:07.459Z,99.90
2022-10-15T09:54:08.875Z,99.90
2022-10-15T09:56:57.456Z,99.90
2022-10-15T09:59:25.767Z,99.90
2022-10-15T10:02:14.837Z,99.90
2022-10-15T10:04:42.344Z,99.90
2022-10-15T10:07:27.485Z,99.90
2022-10-15T10:09:57.034Z,99.90
2022-10-15T10:12:35.934Z,99.90
2022-10-15T10:15:26.483Z,99.80
2022-10-15T10:17:55.889Z,99.80
2022-10-15T10:20:27.595Z,96.90
2022-10-15T10:22:56.199Z,95.40
2022-10-15T10:25:32.190Z,93.90
2022-10-15T10:28:13.868Z,92.80
2022-10-15T10:30:50.550Z,92.50
2022-10-15T10:33:26.757Z,92.10
2022-10-15T10:35:55.183Z,93.10
2022-10-15T10:38:30.101Z,94.70
2022-10-15T10:41:08.473Z,94.60
2022-10-15T10:43:40.188Z,95.30
2022-10-15T10:46:14.722Z,95.70
2022-10-15T10:48:48.269Z,94.90
2022-10-15T10:51:22.550Z,94.80
2022-10-15T10:54:03.280Z,94.70
2022-10-15T10:56:37.725Z,94.50
2022-10-15T10:59:30.824Z,93.30
2022-10-15T11:01:58.322Z,91.30
2022-10-15T11:04:32.484Z,88.20
2022-10-15T11:07:07.006Z,82.70
2022-10-15T11:09:56.268Z,77.60
2022-10-15T11:12:45.157Z,73.50
2022-10-15T11:15:31.247Z,70.50
2022-10-15T11:18:06.656Z,72.70
2022-10-15T11:20:54.926Z,75.80
2022-10-15T11:23:50.533Z,85.80
2022-10-15T11:27:09.742Z,86.40
2022-10-15T11:29:52.216Z,91.90
2022-10-15T11:33:05.451Z,92.00
2022-10-15T11:35:53.243Z,93.60
2022-10-15T11:38:45.260Z,93.20
2022-10-15T11:41:33.360Z,93.90
2022-10-15T11:44:03.504Z,96.00
2022-10-15T11:46:50.513Z,96.30
2022-10-15T11:52:26.460Z,96.70
2022-10-15T11:55:09.002Z,96.80
2022-10-15T11:57:37.186Z,97.30
2022-10-15T12:00:10.304Z,97.60
2022-10-15T12:02:39.886Z,98.50
2022-10-15T12:05:28.083Z,98.10
2022-10-15T12:07:56.462Z,98.50
2022-10-15T12:10:44.053Z,99.50
2022-10-15T12:13:27.749Z,99.90
2022-10-15T12:16:22.802Z,99.00
2022-10-15T12:19:00.172Z,99.00
2022-10-15T12:21:37.486Z,99.60
2022-10-15T12:24:10.621Z,99.90
2022-10-15T12:26:38.138Z,99.80
2022-10-15T12:29:21.442Z,99.90
2022-10-15T12:31:52.853Z,99.80
2022-10-15T12:34:43.929Z,99.40
2022-10-15T12:37:19.196Z,99.20
2022-10-15T12:39:53.931Z,98.80
2022-10-15T12:42:37.687Z,99.10
2022-10-15T12:45:19.977Z,99.20
2022-10-15T12:47:49.212Z,97.90
2022-10-15T12:50:27.413Z,98.90
2022-10-15T12:53:02.998Z,99.00
2022-10-15T12:55:36.595Z,98.70
2022-10-15T12:58:32.726Z,99.40
2022-10-15T13:01:07.651Z,98.40
2022-10-15T13:03:40.089Z,99.10
2022-10-15T13:06:31.870Z,99.20
2022-10-15T13:09:11.559Z,99.00
2022-10-15T13:11:44.175Z,99.60
2022-10-15T13:14:40.405Z,98.90
2022-10-15T13:17:21.480Z,99.60
2022-10-15T13:19:58.362Z,99.40
2022-10-15T13:22:28.653Z,98.90
2022-10-15T13:24:56.746Z,99.40
2022-10-15T13:27:33.599Z,99.20
2022-10-15T13:30:09.946Z,98.70
2022-10-15T13:32:45.682Z,99.30
2022-10-15T13:35:17.964Z,99.30
2022-10-15T13:37:46.897Z,99.10
2022-10-15T13:40:28.578Z,99.40
2022-10-15T13:43:00.505Z,99.70
2022-10-15T13:45:28.962Z,99.50
2022-10-15T13:47:56.297Z,99.30
2022-10-15T13:50:35.282Z,99.30
2022-10-15T13:53:21.279Z,99.60
2022-10-15T13:55:51.874Z,99.90
2022-10-15T13:58:26.652Z,99.90
2022-10-15T14:01:07.301Z,99.90
2022-10-15T14:03:37.120Z,99.90
2022-10-15T14:06:18.673Z,99.90
2022-10-15T14:08:48.410Z,99.90
2022-10-15T14:11:16.149Z,99.90
2022-10-15T14:13:45.966Z,99.90
2022-10-15T14:16:29.612Z,99.90
2022-10-15T14:19:11.142Z,99.90
2022-10-15T14:21:44.592Z,99.90
2022-10-15T14:24:16.287Z,99.90
2022-10-15T14:26:44.025Z,99.90
2022-10-15T14:29:25.804Z,99.90
2022-10-15T14:31:53.996Z,99.50
2022-10-15T14:34:35.485Z,99.30
2022-10-15T14:37:24.225Z,99.10
2022-10-15T14:40:13.165Z,98.80
2022-10-15T14:42:44.841Z,99.00
2022-10-15T14:45:26.136Z,99.10
2022-10-15T14:48:03.088Z,98.90
2022-10-15T14:50:33.209Z,98.40
2022-10-15T14:53:05.610Z,98.90
2022-10-15T14:55:41.902Z,99.30
2022-10-15T14:58:18.077Z,99.90
2022-10-15T15:00:48.221Z,99.90
2022-10-15T15:03:19.462Z,99.90
2022-10-15T15:05:53.812Z,99.90
2022-10-15T15:08:24.167Z,99.90
2022-10-15T15:10:54.988Z,99.90
2022-10-15T15:13:24.572Z,99.90
2022-10-15T15:15:54.516Z,99.90
2022-10-15T15:18:21.947Z,99.90
2022-10-15T15:20:51.077Z,99.90
2022-10-15T15:23:21.947Z,99.90
2022-10-15T15:25:50.167Z,99.90
2022-10-15T15:28:22.392Z,99.90
2022-10-15T15:31:01.366Z,99.90
2022-10-15T15:33:29.222Z,99.90
2022-10-15T15:36:06.648Z,99.90
2022-10-15T15:41:12.224Z,99.90
2022-10-15T15:43:39.700Z,99.90
2022-10-15T15:46:07.161Z,99.90
2022-10-15T15:48:35.179Z,99.90
2022-10-15T15:51:07.058Z,99.90
2022-10-15T15:53:35.848Z,99.90
2022-10-15T15:56:03.210Z,99.90
2022-10-15T15:58:30.570Z,99.90
2022-10-15T16:00:57.877Z,99.90
2022-10-15T16:03:25.165Z,99.90
2022-10-15T16:05:52.731Z,99.90
2022-10-15T16:08:20.169Z,99.90
2022-10-15T16:10:47.595Z,99.90
2022-10-15T16:13:14.992Z,99.90
2022-10-15T16:15:42.398Z,99.90
2022-10-15T16:18:10.742Z,99.90
2022-10-15T16:20:42.754Z,99.90
2022-10-15T16:23:12.793Z,99.90
2022-10-15T16:25:40.288Z,99.90
2022-10-15T16:28:07.684Z,99.90
2022-10-15T16:30:35.422Z,99.90
2022-10-15T16:33:03.217Z,99.90
2022-10-15T16:35:30.903Z,99.90
2022-10-15T16:37:58.413Z,99.90
2022-10-15T16:40:25.752Z,99.90
2022-10-15T16:42:53.098Z,99.90
2022-10-15T16:45:20.382Z,99.90
2022-10-15T16:47:47.685Z,99.90
2022-10-15T16:50:15.200Z,99.90
2022-10-15T16:52:43.439Z,99.90
2022-10-15T16:55:11.922Z,99.90
2022-10-15T16:57:39.369Z,99.90
2022-10-15T17:00:07.395Z,99.90
2022-10-15T17:02:34.636Z,99.90
2022-10-15T17:05:01.980Z,99.90
2022-10-15T17:07:29.261Z,99.90
2022-10-15T17:09:56.969Z,99.90
2022-10-15T17:12:24.698Z,99.90
2022-10-15T17:14:52.224Z,99.90
2022-10-15T17:17:20.093Z,99.90
2022-10-15T17:19:47.420Z,99.90
2022-10-15T17:22:14.773Z,99.90
2022-10-15T17:24:42.155Z,99.90
2022-10-15T17:27:09.516Z,99.90
2022-10-15T17:29:36.887Z,99.90
2022-10-15T17:32:04.323Z,99.90
2022-10-15T17:34:31.681Z,99.90
2022-10-15T17:36:59.072Z,99.90
2022-10-15T17:39:26.376Z,99.90
2022-10-15T17:41:53.721Z,99.90
2022-10-15T17:44:21.159Z,99.90
2022-10-15T17:49:27.323Z,99.90
2022-10-15T17:51:55.140Z,99.90
2022-10-15T17:54:22.480Z,99.90
2022-10-15T17:56:50.489Z,99.90
2022-10-15T17:59:18.129Z,99.90
2022-10-15T18:01:57.812Z,99.90
2022-10-15T18:04:27.088Z,99.90
2022-10-15T18:06:54.347Z,99.90
2022-10-15T18:09:28.184Z,99.90
2022-10-15T18:11:59.509Z,99.90
2022-10-15T18:14:32.225Z,99.90
2022-10-15T18:16:59.771Z,99.90
2022-10-15T18:19:27.282Z,99.90
2022-10-15T18:21:55.501Z,99.90
2022-10-15T18:24:24.104Z,99.90
2022-10-15T18:26:52.009Z,99.90
2022-10-15T18:29:19.800Z,99.90
2022-10-15T18:31:47.589Z,99.90
2022-10-15T18:34:15.377Z,99.90
2022-10-15T18:36:43.782Z,99.90
2022-10-15T18:39:11.632Z,99.90
2022-10-15T18:41:40.456Z,99.90
2022-10-15T18:44:14.845Z,99.90
2022-10-15T18:46:44.862Z,99.90
2022-10-15T18:49:14.605Z,99.90
2022-10-15T18:51:42.678Z,99.90
2022-10-15T18:54:10.787Z,99.90
2022-10-15T18:56:41.484Z,99.90
2022-10-15T18:59:08.961Z,99.90
2022-10-15T19:01:39.072Z,99.90
2022-10-15T19:04:10.017Z,99.90
2022-10-15T19:06:41.267Z,99.90
2022-10-15T19:09:11.761Z,99.90
2022-10-15T19:11:40.924Z,99.90
2022-10-15T19:14:09.256Z,99.90
2022-10-15T19:16:37.311Z,99.90
2022-10-15T19:19:11.064Z,99.90
2022-10-15T19:21:38.828Z,99.90
2022-10-15T19:24:06.677Z,99.90
2022-10-15T19:26:34.824Z,99.90
2022-10-15T19:29:02.746Z,99.90
2022-10-15T19:31:39.226Z,99.90
2022-10-15T19:34:07.173Z,99.90
2022-10-15T19:36:37.937Z,99.90
2022-10-15T19:39:17.764Z,99.90
2022-10-15T19:41:46.014Z,99.90
2022-10-15T19:44:17.041Z,99.90
2022-10-15T19:46:46.659Z,99.90
2022-10-15T19:49:15.162Z,99.90
2022-10-15T19:51:42.866Z,99.90
2022-10-15T19:54:10.493Z,99.90
2022-10-15T19:56:37.807Z,99.90
2022-10-15T19:59:06.063Z,99.90
2022-10-15T20:01:34.070Z,99.90
2022-10-15T20:04:07.096Z,99.90
2022-10-15T20:06:36.313Z,99.90
2022-10-15T20:09:04.633Z,99.90
2022-10-15T20:11:32.508Z,99.90
2022-10-15T20:14:00.757Z,99.90
2022-10-15T20:16:32.429Z,99.90
2022-10-15T20:19:05.447Z,99.90
2022-10-15T20:21:33.381Z,99.90
2022-10-15T20:24:04.424Z,99.90
2022-10-15T20:26:32.684Z,99.90
2022-10-15T20:29:00.215Z,99.90
2022-10-15T20:31:32.341Z,99.90
2022-10-15T20:34:02.051Z,99.90
2022-10-15T20:36:29.825Z,99.90
2022-10-15T20:38:59.679Z,99.90
2022-10-15T20:41:28.485Z,99.90
2022-10-15T20:43:56.524Z,99.90
2022-10-15T20:46:42.153Z,99.90
2022-10-15T20:49:16.321Z,99.90
2022-10-15T20:51:45.063Z,99.90
2022-10-15T20:54:13.958Z,99.90
2022-10-15T20:56:42.583Z,99.90
2022-10-15T20:59:09.964Z,99.90
2022-10-15T21:01:37.642Z,99.90
2022-10-15T21:04:05.591Z,99.90
2022-10-15T21:06:33.515Z,99.90
2022-10-15T21:09:00.997Z,99.90
2022-10-15T21:11:28.883Z,99.90
2022-10-15T21:13:56.354Z,99.90
2022-10-15T21:16:28.399Z,99.90
2022-10-15T21:18:56.137Z,99.90
2022-10-15T21:21:23.567Z,99.90
2022-10-15T21:23:51.191Z,99.90
2022-10-15T21:26:19.096Z,99.90
2022-10-15T21:28:46.696Z,99.90
2022-10-15T21:31:20.018Z,99.90
2022-10-15T21:33:47.945Z,99.90
2022-10-15T21:36:21.950Z,99.90
2022-10-15T21:38:53.218Z,99.90
2022-10-15T21:41:21.707Z,99.90
2022-10-15T21:46:17.354Z,99.90
2022-10-15T21:48:44.949Z,99.90
2022-10-15T21:51:14.736Z,99.90
2022-10-15T21:53:42.490Z,99.90
2022-10-15T21:56:10.579Z,99.90
2022-10-15T21:58:39.138Z,99.90
2022-10-15T22:01:14.542Z,99.90
2022-10-15T22:03:48.045Z,99.90
2022-10-15T22:06:16.413Z,99.90
2022-10-15T22:08:44.404Z,99.90
2022-10-15T22:11:14.516Z,99.90
2022-10-15T22:13:43.592Z,99.90
2022-10-15T22:16:12.368Z,99.90
2022-10-15T22:18:39.826Z,99.90
2022-10-15T22:21:15.923Z,99.90
2022-10-15T22:23:44.123Z,99.90
2022-10-15T22:26:12.301Z,99.90
2022-10-15T22:28:40.165Z,99.90
2022-10-15T22:31:11.441Z,99.90
2022-10-15T22:33:40.891Z,99.90
2022-10-15T22:36:13.505Z,99.90
2022-10-15T22:38:42.073Z,99.90
2022-10-15T22:41:09.939Z,99.90
2022-10-15T22:43:37.373Z,99.90
2022-10-15T22:46:05.407Z,99.90
2022-10-15T22:48:34.730Z,99.90
2022-10-15T22:51:03.424Z,99.90
2022-10-15T22:53:31.305Z,99.90
2022-10-15T22:56:01.457Z,99.90
2022-10-15T22:58:30.831Z,99.90
2022-10-15T23:01:08.312Z,99.90
2022-10-15T23:03:36.016Z,99.90
2022-10-15T23:06:04.004Z,99.90
2022-10-15T23:08:32.681Z,99.90
2022-10-15T23:11:20.916Z,99.90
2022-10-15T23:13:52.037Z,99.90
2022-10-15T23:16:22.472Z,99.90
2022-10-15T23:18:57.946Z,99.90
2022-10-15T23:21:45.617Z,99.90
2022-10-15T23:24:13.516Z,99.90
2022-10-15T23:26:41.706Z,99.90
2022-10-15T23:29:17.122Z,99.90
2022-10-15T23:31:45.274Z,99.90
2022-10-15T23:34:18.529Z,99.90
2022-10-15T23:36:45.793Z,99.90
2022-10-15T23:39:15.122Z,99.90
2022-10-15T23:41:43.577Z,99.90
2022-10-15T23:44:11.629Z,99.90
2022-10-15T23:46:39.698Z,99.90
2022-10-15T23:49:07.138Z,99.90
2022-10-15T23:51:34.824Z,99.90
2022-10-15T23:54:03.912Z,99.90
2022-10-15T23:56:31.532Z,99.90
2022-10-15T23:59:00.862Z,99.90
